Time;durP1;ratioP1;P1;durP2;ratioP2;P2;SDS_P1;SDS_P2;PMS_P1;PMS_P2;Temp;Humidity;BMP_temperature;BMP_pressure;BME280_temperature;BME280_humidity;BME280_pressure;Samples;Min_cycle;Max_cycle;Signal;HPM_P1;HPM_P2
2022/10/26 00:00:53;;;;;;;2.03;1.20;;;15.90;56.90;;;;;;5035201;28;20061;-53
2022/10/26 00:03:21;;;;;;;9.18;1.85;;;16.00;56.90;;;;;;5045101;28;20059;-50
2022/10/26 00:05:48;;;;;;;6.95;1.50;;;15.90;56.90;;;;;;5036929;28;20049;-50
2022/10/26 00:08:16;;;;;;;6.97;1.50;;;15.90;56.90;;;;;;5040213;28;20060;-49
2022/10/26 00:10:43;;;;;;;2.10;1.10;;;15.90;56.90;;;;;;5040908;28;20075;-49
2022/10/26 00:13:12;;;;;;;4.35;1.20;;;16.00;57.00;;;;;;5044341;28;20075;-49
2022/10/26 00:15:41;;;;;;;3.08;1.20;;;16.00;57.00;;;;;;5041482;28;20048;-52
2022/10/26 00:18:09;;;;;;;3.65;1.20;;;16.00;57.00;;;;;;5045948;28;20071;-54
2022/10/26 00:20:37;;;;;;;2.28;1.40;;;16.00;57.00;;;;;;5035168;28;20045;-53
2022/10/26 00:23:05;;;;;;;2.53;1.20;;;16.00;57.00;;;;;;5046014;28;20504;-50
2022/10/26 00:25:32;;;;;;;1.77;0.90;;;16.00;57.00;;;;;;5043135;28;20055;-50
2022/10/26 00:27:59;;;;;;;1.90;1.25;;;16.00;57.10;;;;;;5041717;28;20052;-47
2022/10/26 00:30:27;;;;;;;2.63;1.50;;;16.00;57.10;;;;;;5039399;28;20057;-55
2022/10/26 00:32:54;;;;;;;4.97;1.90;;;16.00;57.10;;;;;;5045803;28;20499;-53
2022/10/26 00:35:21;;;;;;;2.63;1.40;;;16.00;57.10;;;;;;5041352;28;20049;-53
2022/10/26 00:37:54;;;;;;;2.60;1.10;;;16.00;57.10;;;;;;5043863;28;20049;-49
2022/10/26 00:40:21;;;;;;;2.60;1.27;;;16.00;57.20;;;;;;5040021;28;20065;-50
2022/10/26 00:42:48;;;;;;;3.47;1.40;;;16.00;57.20;;;;;;5045557;28;20053;-51
2022/10/26 00:45:20;;;;;;;3.50;1.40;;;16.00;57.20;;;;;;5044185;28;20071;-52
2022/10/26 00:47:50;;;;;;;4.20;1.40;;;16.00;57.20;;;;;;5039552;28;20056;-51
2022/10/26 00:50:20;;;;;;;3.35;1.25;;;16.00;57.20;;;;;;5041270;28;20685;-50
2022/10/26 00:52:51;;;;;;;3.65;1.42;;;16.10;57.30;;;;;;5044598;28;20048;-50
2022/10/26 00:55:24;;;;;;;3.42;1.35;;;16.10;57.30;;;;;;5044630;28;20063;-51
2022/10/26 00:57:53;;;;;;;5.93;1.50;;;16.10;57.30;;;;;;5044857;28;20060;-50
2022/10/26 01:00:21;;;;;;;3.40;1.42;;;16.00;57.30;;;;;;5038043;28;20053;-57
2022/10/26 01:02:50;;;;;;;4.72;1.33;;;16.10;57.30;;;;;;5042482;28;20057;-56
2022/10/26 01:05:19;;;;;;;2.78;1.25;;;16.10;57.40;;;;;;5040870;28;20061;-56
2022/10/26 01:07:47;;;;;;;5.35;1.25;;;16.10;57.40;;;;;;5040846;28;20053;-58
2022/10/26 01:10:17;;;;;;;2.88;1.10;;;16.10;57.40;;;;;;5038997;28;20060;-57
2022/10/26 01:12:45;;;;;;;1.92;1.10;;;16.10;57.40;;;;;;5043543;28;20049;-55
2022/10/26 01:15:13;;;;;;;3.05;1.10;;;16.10;57.40;;;;;;5042250;28;20045;-57
2022/10/26 01:17:53;;;;;;;3.35;1.80;;;16.10;57.40;;;;;;5046017;28;20374;-58
2022/10/26 01:20:50;;;;;;;4.13;1.33;;;16.10;57.40;;;;;;5040142;28;20053;-57
2022/10/26 01:23:26;;;;;;;7.15;1.58;;;16.10;57.40;;;;;;5041500;28;20049;-57
2022/10/26 01:26:26;;;;;;;4.25;1.30;;;16.20;57.40;;;;;;5044989;28;20061;-57
2022/10/26 01:29:14;;;;;;;4.40;1.30;;;16.20;57.50;;;;;;5045866;28;20520;-57
2022/10/26 01:31:47;;;;;;;4.18;1.20;;;16.10;57.40;;;;;;5026945;28;20052;-57
2022/10/26 01:34:21;;;;;;;2.28;1.20;;;16.20;57.40;;;;;;5043487;28;20417;-57
2022/10/26 01:36:54;;;;;;;2.40;0.95;;;16.20;57.50;;;;;;5038859;28;20059;-57
2022/10/26 01:39:28;;;;;;;4.13;1.40;;;16.20;57.50;;;;;;5026404;28;20065;-57
2022/10/26 01:41:58;;;;;;;3.88;1.05;;;16.20;57.50;;;;;;5040973;28;20049;-57
2022/10/26 01:44:30;;;;;;;2.17;1.00;;;16.20;57.50;;;;;;5040935;28;20515;-55
2022/10/26 01:47:01;;;;;;;4.40;1.42;;;16.20;57.60;;;;;;5032662;28;20246;-57
2022/10/26 01:49:33;;;;;;;2.38;1.27;;;16.20;57.60;;;;;;5031287;28;20049;-57
2022/10/26 01:52:00;;;;;;;5.22;1.60;;;16.20;57.60;;;;;;5041273;28;20936;-56
2022/10/26 01:54:28;;;;;;;4.88;1.38;;;16.20;57.70;;;;;;5042147;28;20068;-57
2022/10/26 01:57:00;;;;;;;4.60;1.52;;;16.20;57.70;;;;;;5040214;28;20059;-57
2022/10/26 01:59:41;;;;;;;4.50;1.70;;;16.20;57.70;;;;;;5044241;28;20053;-58
2022/10/26 02:02:32;;;;;;;3.85;1.10;;;16.30;57.90;;;;;;5038993;28;20072;-54
2022/10/26 02:05:23;;;;;;;2.80;1.25;;;16.20;57.90;;;;;;5045542;28;20065;-57
2022/10/26 02:07:57;;;;;;;5.07;1.15;;;16.30;57.90;;;;;;5040342;28;20052;-57
2022/10/26 02:10:33;;;;;;;5.50;1.25;;;16.30;57.90;;;;;;5041495;28;20057;-56
2022/10/26 02:13:10;;;;;;;5.32;1.20;;;16.30;57.90;;;;;;5042596;28;20053;-56
2022/10/26 02:15:45;;;;;;;2.85;1.20;;;16.30;57.90;;;;;;5033547;28;20052;-57
2022/10/26 02:18:23;;;;;;;4.75;1.30;;;16.30;58.00;;;;;;5040112;28;20512;-55
2022/10/26 02:20:55;;;;;;;2.13;1.13;;;16.30;58.10;;;;;;5040975;28;20064;-57
2022/10/26 02:23:25;;;;;;;3.38;1.25;;;16.30;58.10;;;;;;5042741;28;20056;-58
2022/10/26 02:25:57;;;;;;;3.20;1.27;;;16.30;58.20;;;;;;5043863;28;20401;-56
2022/10/26 02:28:28;;;;;;;5.15;1.40;;;16.40;58.30;;;;;;5038157;28;20053;-59
2022/10/26 02:30:59;;;;;;;2.90;1.05;;;16.40;58.30;;;;;;5044590;28;20116;-58
2022/10/26 02:33:31;;;;;;;7.20;1.48;;;16.30;58.30;;;;;;5046597;28;20049;-59
2022/10/26 02:36:01;;;;;;;4.60;1.10;;;16.40;58.30;;;;;;5044821;28;20053;-54
2022/10/26 02:38:30;;;;;;;4.60;1.17;;;16.40;58.40;;;;;;5043600;28;20057;-58
2022/10/26 02:41:00;;;;;;;6.35;1.70;;;16.40;58.50;;;;;;5045032;28;20339;-59
2022/10/26 02:43:29;;;;;;;3.80;1.30;;;16.40;58.50;;;;;;5042231;28;20053;-58
2022/10/26 02:46:02;;;;;;;6.60;1.50;;;16.40;58.50;;;;;;5044026;28;20511;-58
2022/10/26 02:48:31;;;;;;;2.67;1.10;;;16.40;58.50;;;;;;5044420;28;20049;-58
2022/10/26 02:51:03;;;;;;;6.85;1.65;;;16.40;58.50;;;;;;5030735;28;20060;-50
2022/10/26 02:53:33;;;;;;;5.40;1.40;;;16.40;58.50;;;;;;5029382;28;20053;-48
2022/10/26 02:56:06;;;;;;;4.20;1.20;;;16.40;58.50;;;;;;5042583;28;20056;-53
2022/10/26 02:58:40;;;;;;;5.18;1.20;;;16.50;58.60;;;;;;5033211;28;20048;-51
2022/10/26 03:01:07;;;;;;;9.52;2.25;;;16.50;58.60;;;;;;5045102;28;20053;-56
2022/10/26 03:03:36;;;;;;;10.25;1.77;;;16.50;58.60;;;;;;5040291;28;20063;-58
2022/10/26 03:06:03;;;;;;;4.78;1.40;;;16.50;58.70;;;;;;5035986;23;20057;-58
2022/10/26 03:08:31;;;;;;;4.32;1.30;;;16.50;58.70;;;;;;5004651;28;20054;-57
2022/10/26 03:10:58;;;;;;;7.18;1.10;;;16.50;58.80;;;;;;5001828;28;20658;-55
2022/10/26 03:13:25;;;;;;;4.40;1.20;;;16.50;58.80;;;;;;4999871;28;20045;-58
2022/10/26 03:15:56;;;;;;;7.32;1.30;;;16.50;58.80;;;;;;4995076;28;20050;-58
2022/10/26 03:18:23;;;;;;;8.77;2.05;;;16.60;58.90;;;;;;5006561;28;20076;-56
2022/10/26 03:20:51;;;;;;;3.05;1.00;;;16.60;59.00;;;;;;5008417;28;20058;-58
2022/10/26 03:23:19;;;;;;;2.78;1.17;;;16.60;59.00;;;;;;5004794;28;20437;-58
2022/10/26 03:25:46;;;;;;;7.78;1.55;;;16.60;59.10;;;;;;5005396;28;20057;-58
2022/10/26 03:28:13;;;;;;;4.28;1.13;;;16.60;59.20;;;;;;5005389;28;20061;-51
2022/10/26 03:30:40;;;;;;;8.57;1.33;;;16.60;59.20;;;;;;5003544;28;20414;-54
2022/10/26 03:33:08;;;;;;;5.43;1.13;;;16.60;59.30;;;;;;5003084;28;20057;-54
2022/10/26 03:35:35;;;;;;;5.38;1.20;;;16.60;59.40;;;;;;5003009;28;20057;-55
2022/10/26 03:38:03;;;;;;;6.10;1.98;;;16.60;59.40;;;;;;5008340;28;20413;-56
2022/10/26 03:40:31;;;;;;;8.80;1.30;;;16.60;59.50;;;;;;5008729;28;20049;-57
2022/10/26 03:42:58;;;;;;;5.07;1.05;;;16.70;59.60;;;;;;5009581;28;20061;-57
2022/10/26 03:45:25;;;;;;;8.00;1.30;;;16.70;59.60;;;;;;5014861;28;20076;-58
2022/10/26 03:47:52;;;;;;;6.32;1.30;;;16.70;59.60;;;;;;5013630;28;20056;-58
2022/10/26 03:50:22;;;;;;;4.65;1.27;;;16.70;59.60;;;;;;5014140;28;20054;-57
2022/10/26 03:52:49;;;;;;;3.17;1.00;;;16.70;59.70;;;;;;5014025;28;20046;-56
2022/10/26 03:55:19;;;;;;;8.23;1.90;;;16.70;59.70;;;;;;5010636;28;20623;-57
2022/10/26 03:57:46;;;;;;;6.20;1.40;;;16.70;59.70;;;;;;5012092;28;20060;-55
2022/10/26 04:00:16;;;;;;;3.65;1.13;;;16.80;59.80;;;;;;5012770;28;20049;-55
2022/10/26 04:02:45;;;;;;;3.38;1.08;;;16.80;59.80;;;;;;5014714;28;20045;-53
2022/10/26 04:05:13;;;;;;;4.55;1.30;;;16.80;59.70;;;;;;5010806;28;20057;-57
2022/10/26 04:07:40;;;;;;;6.90;1.70;;;16.80;59.70;;;;;;5017395;28;20054;-56
2022/10/26 04:10:08;;;;;;;5.10;1.27;;;16.90;59.80;;;;;;5017091;28;20054;-57
2022/10/26 04:12:38;;;;;;;4.55;1.50;;;16.90;59.80;;;;;;5013179;28;20054;-57
2022/10/26 04:15:07;;;;;;;4.63;1.20;;;16.90;59.80;;;;;;5014751;28;20658;-57
2022/10/26 04:17:34;;;;;;;2.92;0.80;;;16.90;59.70;;;;;;5009493;28;20054;-57
2022/10/26 04:20:02;;;;;;;4.97;0.98;;;16.90;59.70;;;;;;5014899;28;20050;-53
2022/10/26 04:22:29;;;;;;;1.73;1.00;;;16.90;59.70;;;;;;5013576;28;20050;-57
2022/10/26 04:24:56;;;;;;;3.53;1.10;;;16.90;59.70;;;;;;5013769;28;20058;-57
2022/10/26 04:27:23;;;;;;;8.00;1.50;;;17.00;59.70;;;;;;5012634;28;20062;-55
2022/10/26 04:29:52;;;;;;;8.07;1.58;;;17.00;59.70;;;;;;5008591;28;20054;-57
2022/10/26 04:32:19;;;;;;;40.38;19.10;;;17.00;59.60;;;;;;5006207;28;20058;-57
2022/10/26 04:34:46;;;;;;;33.95;16.80;;;17.00;59.60;;;;;;5013077;28;20062;-56
2022/10/26 04:37:13;;;;;;;13.40;6.50;;;17.00;59.50;;;;;;5008854;28;20058;-58
2022/10/26 04:39:41;;;;;;;7.93;2.92;;;17.00;59.50;;;;;;5011420;28;20077;-56
2022/10/26 04:42:08;;;;;;;3.25;1.50;;;17.00;59.50;;;;;;5006274;28;20402;-57
2022/10/26 04:44:35;;;;;;;6.22;1.73;;;17.00;59.50;;;;;;5013509;28;20054;-57
2022/10/26 04:47:04;;;;;;;2.28;1.23;;;17.00;59.50;;;;;;5012408;28;20061;-57
2022/10/26 04:49:31;;;;;;;5.47;1.75;;;17.10;59.50;;;;;;5009374;28;20050;-57
2022/10/26 04:51:58;;;;;;;3.22;1.02;;;17.00;59.40;;;;;;5005045;28;20065;-57
2022/10/26 04:54:25;;;;;;;6.15;1.58;;;17.00;59.50;;;;;;5007322;28;20502;-57
2022/10/26 04:56:52;;;;;;;3.75;1.52;;;17.00;59.40;;;;;;5009069;28;20410;-57
2022/10/26 04:59:20;;;;;;;3.22;1.20;;;17.10;59.50;;;;;;5010094;28;20065;-57
2022/10/26 05:01:49;;;;;;;4.35;1.38;;;17.00;59.50;;;;;;5004777;28;20050;-56
2022/10/26 05:04:17;;;;;;;24.50;11.75;;;17.00;59.50;;;;;;5009901;28;20068;-57
2022/10/26 05:06:44;;;;;;;15.60;8.95;;;17.00;59.50;;;;;;5005170;23;20050;-57
2022/10/26 05:09:12;;;;;;;7.40;4.00;;;17.00;59.50;;;;;;4991394;28;20054;-57
2022/10/26 05:11:39;;;;;;;5.13;2.00;;;17.00;59.50;;;;;;4990997;28;20069;-57
2022/10/26 05:14:08;;;;;;;5.15;1.70;;;17.00;59.50;;;;;;4992686;28;20061;-58
2022/10/26 05:16:35;;;;;;;2.78;1.55;;;17.00;59.60;;;;;;4987143;28;20429;-55
2022/10/26 05:19:03;;;;;;;6.78;1.90;;;17.00;59.50;;;;;;4990177;28;20058;-57
2022/10/26 05:21:31;;;;;;;5.40;1.45;;;17.00;59.50;;;;;;4989132;28;20054;-53
2022/10/26 05:23:59;;;;;;;2.70;1.30;;;17.00;59.50;;;;;;4987423;28;20058;-58
2022/10/26 05:26:26;;;;;;;3.17;1.60;;;17.00;59.50;;;;;;4991022;28;20054;-58
2022/10/26 05:28:53;;;;;;;4.88;1.52;;;17.00;59.50;;;;;;4991770;28;20065;-57
2022/10/26 05:31:21;;;;;;;11.40;4.63;;;17.00;59.50;;;;;;4986629;28;20062;-58
2022/10/26 05:33:49;;;;;;;15.57;6.15;;;17.00;59.60;;;;;;4985169;28;20494;-55
2022/10/26 05:36:16;;;;;;;5.18;2.60;;;17.00;59.50;;;;;;4986056;28;20054;-57
2022/10/26 05:38:45;;;;;;;4.40;1.67;;;17.00;59.50;;;;;;4987239;28;20070;-57
2022/10/26 05:41:12;;;;;;;4.32;1.65;;;17.00;59.60;;;;;;4990760;28;20406;-57
2022/10/26 05:43:39;;;;;;;8.27;1.80;;;17.00;59.60;;;;;;4989567;28;20054;-58
2022/10/26 05:46:07;;;;;;;7.00;1.63;;;16.90;59.50;;;;;;4988470;28;20065;-57
2022/10/26 05:48:34;;;;;;;3.92;1.85;;;16.90;59.50;;;;;;4990864;28;20062;-57
2022/10/26 05:51:01;;;;;;;5.45;1.95;;;16.90;59.50;;;;;;4991926;28;20054;-57
2022/10/26 05:53:29;;;;;;;6.00;1.67;;;16.90;59.50;;;;;;4988544;28;20058;-56
2022/10/26 05:55:58;;;;;;;11.25;1.90;;;16.90;59.60;;;;;;4993653;28;20061;-56
2022/10/26 05:58:26;;;;;;;8.43;2.40;;;16.90;59.60;;;;;;4992508;28;20061;-57
2022/10/26 06:01:06;;;;;;;7.10;1.80;;;16.90;59.60;;;;;;4987238;28;22230;-54
2022/10/26 06:03:45;;;;;;;4.75;1.50;;;16.90;59.70;;;;;;4993467;28;20057;-57
2022/10/26 06:06:13;;;;;;;2.90;1.65;;;16.90;59.70;;;;;;5007347;23;20049;-55
2022/10/26 06:08:42;;;;;;;8.50;1.80;;;16.90;59.60;;;;;;5009781;28;20054;-57
2022/10/26 06:11:11;;;;;;;6.15;1.77;;;16.90;59.60;;;;;;5005970;28;20453;-54
2022/10/26 06:13:39;;;;;;;5.05;1.50;;;16.90;59.70;;;;;;5010034;28;20053;-56
2022/10/26 06:16:21;;;;;;;7.40;1.83;;;16.90;59.70;;;;;;5007845;28;20058;-58
2022/10/26 06:19:00;;;;;;;4.32;1.50;;;16.90;59.70;;;;;;5005546;28;20054;-54
2022/10/26 06:21:40;;;;;;;4.53;1.38;;;16.90;59.70;;;;;;5009117;28;20049;-54
2022/10/26 06:24:13;;;;;;;3.53;1.38;;;16.90;59.70;;;;;;5008954;28;20061;-56
2022/10/26 06:26:48;;;;;;;2.88;1.70;;;16.90;59.70;;;;;;5007963;28;20045;-57
2022/10/26 06:29:24;;;;;;;4.82;1.40;;;16.90;59.80;;;;;;5005958;28;20064;-55
2022/10/26 06:31:52;;;;;;;5.32;1.88;;;16.90;59.80;;;;;;5010066;28;20069;-57
2022/10/26 06:34:25;;;;;;;4.05;1.50;;;16.90;59.80;;;;;;5006198;28;20057;-56
2022/10/26 06:36:53;;;;;;;5.88;1.50;;;16.90;59.90;;;;;;5006197;28;20049;-54
2022/10/26 06:39:21;;;;;;;3.92;1.83;;;16.90;60.60;;;;;;5006022;28;20505;-55
2022/10/26 06:41:51;;;;;;;4.70;1.90;;;16.90;60.00;;;;;;5008139;28;20057;-57
2022/10/26 06:44:22;;;;;;;5.57;1.67;;;16.90;60.00;;;;;;5009009;28;20413;-56
2022/10/26 06:46:56;;;;;;;5.93;1.70;;;16.90;60.00;;;;;;5006522;28;20057;-56
2022/10/26 06:49:30;;;;;;;3.75;1.48;;;16.90;60.10;;;;;;5009750;28;20049;-55
2022/10/26 06:52:01;;;;;;;4.53;1.77;;;16.90;60.10;;;;;;5006769;28;20731;-56
2022/10/26 06:54:40;;;;;;;5.80;1.58;;;16.90;60.10;;;;;;5006502;28;20057;-57
2022/10/26 06:57:11;;;;;;;4.15;1.48;;;16.90;60.10;;;;;;5004098;28;20048;-57
2022/10/26 06:59:43;;;;;;;6.03;1.80;;;16.90;60.20;;;;;;5007903;28;20060;-55
2022/10/26 07:02:13;;;;;;;5.50;1.83;;;16.90;60.10;;;;;;5005561;28;20053;-57
2022/10/26 07:04:40;;;;;;;9.88;2.05;;;16.90;60.10;;;;;;5006634;28;20054;-57
2022/10/26 07:07:09;;;;;;;7.07;1.90;;;16.90;60.20;;;;;;5015334;22;20317;-57
2022/10/26 07:09:36;;;;;;;5.10;1.65;;;16.90;60.30;;;;;;5009320;28;20054;-56
2022/10/26 07:12:04;;;;;;;2.97;1.30;;;16.90;60.30;;;;;;5001698;28;20504;-57
2022/10/26 07:14:32;;;;;;;82.15;33.35;;;16.90;60.30;;;;;;5004301;28;20057;-56
2022/10/26 07:17:00;;;;;;;31.20;12.82;;;16.90;60.40;;;;;;5001887;28;20073;-56
2022/10/26 07:19:27;;;;;;;12.90;5.22;;;16.90;60.40;;;;;;5007350;28;20077;-54
2022/10/26 07:21:58;;;;;;;8.10;2.50;;;16.90;60.50;;;;;;5005762;28;20061;-57
2022/10/26 07:24:25;;;;;;;8.13;2.22;;;16.90;60.50;;;;;;5008231;28;20054;-57
2022/10/26 07:26:54;;;;;;;3.20;1.60;;;16.90;60.50;;;;;;5003703;28;20061;-55
2022/10/26 07:29:22;;;;;;;5.50;1.90;;;16.90;60.50;;;;;;5008596;28;20053;-57
2022/10/26 07:31:50;;;;;;;8.45;1.55;;;17.00;60.60;;;;;;5003906;28;20066;-57
2022/10/26 07:34:18;;;;;;;5.32;1.88;;;17.00;60.50;;;;;;5004038;28;20054;-57
2022/10/26 07:36:45;;;;;;;7.43;2.42;;;17.00;60.50;;;;;;4999880;28;20045;-56
2022/10/26 07:39:12;;;;;;;11.73;4.38;;;17.00;60.50;;;;;;5006502;28;20058;-57
2022/10/26 07:41:39;;;;;;;6.65;2.53;;;17.00;60.50;;;;;;5007234;28;20065;-56
2022/10/26 07:44:07;;;;;;;6.07;1.83;;;17.00;60.50;;;;;;5009865;28;20054;-57
2022/10/26 07:46:34;;;;;;;6.68;1.73;;;17.00;60.50;;;;;;5009838;28;20057;-57
2022/10/26 07:49:02;;;;;;;5.05;1.90;;;17.00;60.50;;;;;;5009830;28;20069;-58
2022/10/26 07:51:30;;;;;;;9.02;2.22;;;17.00;60.50;;;;;;5007981;28;20060;-56
2022/10/26 07:53:57;;;;;;;7.97;1.73;;;17.00;60.50;;;;;;5007550;28;20058;-56
2022/10/26 07:56:24;;;;;;;5.10;2.00;;;17.10;60.50;;;;;;5009971;28;20057;-58
2022/10/26 07:58:53;;;;;;;6.95;2.13;;;17.10;60.40;;;;;;5008172;28;20046;-58
2022/10/26 08:01:21;;;;;;;7.40;1.60;;;17.10;60.40;;;;;;5008785;28;20069;-57
2022/10/26 08:03:51;;;;;;;3.83;1.50;;;17.10;60.40;;;;;;5009887;28;20065;-55
2022/10/26 08:06:21;;;;;;;9.90;1.75;;;17.10;60.40;;;;;;5016930;23;20057;-56
2022/10/26 08:08:48;;;;;;;4.72;1.50;;;17.10;60.50;;;;;;5008505;28;20054;-57
2022/10/26 08:11:16;;;;;;;6.40;2.13;;;17.10;60.40;;;;;;5010001;28;20068;-57
2022/10/26 08:13:44;;;;;;;3.67;1.80;;;17.10;60.40;;;;;;5011328;28;20434;-57
2022/10/26 08:16:11;;;;;;;7.57;1.70;;;17.10;60.40;;;;;;5011743;28;20056;-57
2022/10/26 08:18:38;;;;;;;5.90;2.13;;;17.10;60.30;;;;;;5007341;28;20061;-56
2022/10/26 08:21:07;;;;;;;7.57;2.08;;;17.20;60.30;;;;;;5008454;28;20092;-58
2022/10/26 08:23:36;;;;;;;4.70;2.08;;;17.20;60.20;;;;;;5009338;28;20061;-57
2022/10/26 08:26:04;;;;;;;7.43;2.17;;;17.20;60.20;;;;;;5015539;28;20414;-57
2022/10/26 08:28:31;;;;;;;9.88;2.55;;;17.20;60.10;;;;;;5015100;28;20064;-57
2022/10/26 08:30:59;;;;;;;4.85;2.00;;;17.20;60.10;;;;;;5012804;28;20078;-58
2022/10/26 08:33:26;;;;;;;6.18;2.03;;;17.20;60.10;;;;;;5014214;28;20050;-52
2022/10/26 08:35:56;;;;;;;8.73;1.80;;;17.20;60.20;;;;;;5013522;28;20049;-58
2022/10/26 08:38:23;;;;;;;3.10;2.05;;;17.20;60.20;;;;;;5011800;28;20053;-57
2022/10/26 08:40:53;;;;;;;4.78;1.60;;;17.20;60.30;;;;;;5002950;28;20064;-54
2022/10/26 08:43:26;;;;;;;4.70;1.95;;;17.20;60.40;;;;;;5009414;28;20058;-55
2022/10/26 08:45:59;;;;;;;4.88;1.80;;;17.20;61.20;;;;;;5011629;28;20057;-57
2022/10/26 08:48:32;;;;;;;10.23;2.28;;;17.20;60.70;;;;;;5010106;28;20050;-56
2022/10/26 08:51:02;;;;;;;3.45;1.50;;;17.20;60.90;;;;;;5009619;28;20061;-57
2022/10/26 08:53:37;;;;;;;5.93;1.63;;;17.20;60.90;;;;;;5005708;28;20049;-56
2022/10/26 08:56:12;;;;;;;6.07;1.80;;;17.20;60.90;;;;;;5013067;28;20057;-58
2022/10/26 08:58:48;;;;;;;14.07;5.25;;;17.30;61.10;;;;;;5009618;28;20058;-55
2022/10/26 09:01:16;;;;;;;7.80;2.80;;;17.30;61.20;;;;;;5010533;28;20060;-57
2022/10/26 09:03:43;;;;;;;6.88;2.55;;;17.30;61.20;;;;;;5012016;28;20060;-57
2022/10/26 09:06:25;;;;;;;7.95;2.25;;;17.40;61.30;;;;;;5010733;23;20429;-54
2022/10/26 09:09:00;;;;;;;10.18;2.00;;;17.40;61.50;;;;;;4985079;28;20061;-58
2022/10/26 09:11:46;;;;;;;6.65;2.00;;;17.40;61.50;;;;;;4987413;28;20054;-59
2022/10/26 09:14:19;;;;;;;8.35;2.13;;;17.40;61.60;;;;;;4982961;28;20058;-58
2022/10/26 09:17:00;;;;;;;6.53;1.60;;;17.50;61.50;;;;;;4984999;28;20058;-58
2022/10/26 09:19:46;;;;;;;4.80;1.92;;;17.50;61.40;;;;;;4983304;28;20047;-58
2022/10/26 09:22:21;;;;;;;4.65;1.70;;;17.60;61.60;;;;;;4986872;28;20081;-57
2022/10/26 09:24:52;;;;;;;7.60;1.88;;;17.60;61.50;;;;;;4993027;28;20055;-57
2022/10/26 09:27:26;;;;;;;10.82;2.10;;;17.60;61.60;;;;;;4989899;28;20067;-57
2022/10/26 09:29:56;;;;;;;3.58;1.52;;;17.70;61.80;;;;;;4990120;28;20050;-57
2022/10/26 09:32:28;;;;;;;2.92;1.60;;;17.70;61.70;;;;;;4983224;28;20053;-58
2022/10/26 09:35:00;;;;;;;6.68;2.13;;;17.80;61.90;;;;;;4982266;28;20061;-57
2022/10/26 09:37:30;;;;;;;4.28;2.10;;;17.90;62.00;;;;;;4984849;28;20525;-58
2022/10/26 09:40:05;;;;;;;6.47;1.67;;;17.90;62.10;;;;;;4987620;28;20054;-52
2022/10/26 09:42:40;;;;;;;8.80;1.73;;;17.90;62.10;;;;;;4991030;28;20487;-58
2022/10/26 09:45:16;;;;;;;6.95;2.10;;;18.00;62.10;;;;;;4989821;28;20058;-57
2022/10/26 09:47:51;;;;;;;3.50;1.77;;;18.10;62.20;;;;;;4989716;28;20050;-57
2022/10/26 09:50:24;;;;;;;4.57;1.55;;;18.10;62.30;;;;;;4986947;28;20054;-56
2022/10/26 09:52:51;;;;;;;6.88;2.10;;;18.20;62.40;;;;;;4989526;28;20050;-57
2022/10/26 09:55:19;;;;;;;4.82;1.70;;;18.20;62.30;;;;;;4990594;28;20438;-57
2022/10/26 09:57:51;;;;;;;4.72;1.30;;;18.30;62.30;;;;;;4983404;28;20058;-54
2022/10/26 10:00:26;;;;;;;7.80;1.40;;;18.30;62.30;;;;;;4984544;28;20142;-56
2022/10/26 10:02:54;;;;;;;40.72;20.17;;;18.40;62.40;;;;;;4986814;28;20069;-57
2022/10/26 10:05:30;;;;;;;29.30;13.95;;;18.40;62.30;;;;;;4997208;23;20521;-57
2022/10/26 10:08:18;;;;;;;17.27;5.32;;;18.50;62.30;;;;;;5000627;28;20482;-57
2022/10/26 10:10:57;;;;;;;7.78;2.72;;;18.60;62.50;;;;;;4998244;28;20054;-55
2022/10/26 10:13:28;;;;;;;4.20;1.73;;;18.70;62.60;;;;;;5004991;28;20092;-57
2022/10/26 10:15:59;;;;;;;8.40;1.95;;;18.70;62.30;;;;;;4999527;28;20525;-57
2022/10/26 10:18:27;;;;;;;6.47;1.70;;;18.80;62.30;;;;;;5003027;28;20510;-54
2022/10/26 10:20:56;;;;;;;3.08;1.20;;;18.80;62.10;;;;;;5001299;28;20070;-57
2022/10/26 10:23:30;;;;;;;2.10;1.38;;;18.90;62.10;;;;;;5002285;28;20066;-56
2022/10/26 10:26:15;;;;;;;5.90;1.55;;;19.00;62.20;;;;;;5000416;28;20053;-59
2022/10/26 10:28:57;;;;;;;4.35;1.88;;;19.00;61.90;;;;;;5010880;28;20057;-57
2022/10/26 10:31:29;;;;;;;5.20;1.92;;;19.10;61.70;;;;;;5010422;28;20050;-57
2022/10/26 10:33:59;;;;;;;6.43;1.45;;;19.10;61.60;;;;;;5005366;28;20054;-57
2022/10/26 10:36:29;;;;;;;3.70;1.55;;;19.10;61.70;;;;;;5003049;28;20054;-58
2022/10/26 10:38:56;;;;;;;2.47;1.35;;;19.20;61.70;;;;;;4996553;28;20054;-58
2022/10/26 10:41:28;;;;;;;2.92;1.58;;;19.20;61.70;;;;;;4998256;28;20056;-58
2022/10/26 10:44:06;;;;;;;5.85;1.95;;;19.30;61.80;;;;;;5001083;28;20042;-58
2022/10/26 10:46:33;;;;;;;5.47;1.65;;;19.30;61.60;;;;;;5000441;28;20065;-58
2022/10/26 10:49:03;;;;;;;9.45;1.58;;;19.40;61.50;;;;;;5009657;28;20067;-56
2022/10/26 10:51:36;;;;;;;8.93;1.60;;;19.40;61.40;;;;;;5003974;28;20319;-57
2022/10/26 10:54:05;;;;;;;4.30;1.83;;;19.40;61.40;;;;;;5010111;28;20077;-58
2022/10/26 10:56:40;;;;;;;4.78;1.60;;;19.50;61.40;;;;;;5007625;28;20061;-57
2022/10/26 10:59:35;;;;;;;8.98;1.50;;;19.50;61.40;;;;;;5006843;28;20505;-56
2022/10/26 11:02:31;;;;;;;6.22;1.67;;;19.50;61.10;;;;;;5001436;28;20050;-54
2022/10/26 11:07:42;;;;;;;6.32;1.60;;;19.70;60.40;;;;;;5009698;23;20061;-56
2022/10/26 11:10:17;;;;;;;3.20;1.50;;;19.70;60.40;;;;;;5009707;28;20061;-56
2022/10/26 11:12:49;;;;;;;4.28;1.52;;;19.70;60.40;;;;;;5005874;28;20406;-54
2022/10/26 11:15:22;;;;;;;9.93;1.85;;;19.70;60.20;;;;;;5005019;28;20498;-50
2022/10/26 11:17:58;;;;;;;6.47;1.77;;;19.80;60.20;;;;;;5003111;28;20057;-48
2022/10/26 11:20:28;;;;;;;9.68;2.00;;;19.80;59.70;;;;;;4998436;28;20426;-46
2022/10/26 11:23:04;;;;;;;7.53;1.65;;;19.90;59.70;;;;;;5000874;28;20042;-52
2022/10/26 11:25:37;;;;;;;4.45;1.45;;;19.90;59.30;;;;;;4998357;28;20053;-51
2022/10/26 11:28:11;;;;;;;5.07;1.63;;;20.00;59.10;;;;;;5002860;28;20056;-54
2022/10/26 11:30:45;;;;;;;5.03;1.92;;;20.00;58.90;;;;;;4999575;28;20057;-48
2022/10/26 11:33:17;;;;;;;6.63;1.70;;;20.00;58.70;;;;;;5002391;28;20050;-54
2022/10/26 11:35:50;;;;;;;3.08;1.42;;;20.10;58.70;;;;;;5002485;28;20054;-55
2022/10/26 11:38:23;;;;;;;6.50;1.58;;;20.20;59.30;;;;;;4997332;28;20494;-55
2022/10/26 11:40:57;;;;;;;3.95;1.42;;;20.10;58.60;;;;;;5000036;28;20528;-55
2022/10/26 11:43:28;;;;;;;;;;;20.20;58.60;;;;;;5003165;28;20065;-50
2022/10/26 11:46:05;;;;;;;10.73;1.63;;;20.30;58.80;;;;;;4997687;28;19936;-54
2022/10/26 11:48:40;;;;;;;6.53;1.35;;;20.40;58.60;;;;;;5002655;28;20498;-55
2022/10/26 11:51:17;;;;;;;2.90;1.27;;;20.40;58.70;;;;;;4998440;28;20053;-54
2022/10/26 11:53:47;;;;;;;4.75;1.33;;;20.40;58.40;;;;;;5002270;28;20418;-56
2022/10/26 11:56:22;;;;;;;3.30;1.38;;;20.50;58.50;;;;;;4998662;28;20045;-53
2022/10/26 11:58:49;;;;;;;5.43;1.40;;;20.50;58.50;;;;;;5001399;28;20042;-53
2022/10/26 12:01:18;;;;;;;4.28;1.58;;;20.60;58.60;;;;;;4999905;28;20046;-54
2022/10/26 12:03:49;;;;;;;8.48;2.00;;;20.60;58.50;;;;;;5005559;28;20490;-56
2022/10/26 12:06:20;;;;;;;5.57;1.73;;;20.70;58.50;;;;;;5004478;28;20057;-56
2022/10/26 12:08:54;;;;;;;5.90;1.67;;;20.70;58.60;;;;;;5003741;28;20052;-55
2022/10/26 12:11:35;;;;;;;3.00;1.20;;;20.80;58.40;;;;;;5005619;28;20500;-55
2022/10/26 12:14:09;;;;;;;1.98;1.00;;;20.90;58.20;;;;;;5011177;28;20474;-56
2022/10/26 12:16:46;;;;;;;5.03;1.15;;;21.00;57.80;;;;;;5008744;28;20054;-56
2022/10/26 12:19:21;;;;;;;2.50;1.20;;;21.00;57.50;;;;;;5007975;28;20134;-56
2022/10/26 12:21:50;;;;;;;2.65;1.30;;;21.10;57.70;;;;;;5010517;28;20137;-55
2022/10/26 12:24:29;;;;;;;5.20;1.10;;;21.20;57.70;;;;;;5003889;28;20061;-52
2022/10/26 12:26:57;;;;;;;4.53;1.23;;;21.30;57.50;;;;;;5008124;28;20065;-56
2022/10/26 12:29:39;;;;;;;7.25;1.80;;;21.30;57.40;;;;;;5012322;28;20490;-55
2022/10/26 12:32:47;;;;;;;2.47;1.15;;;21.40;56.90;;;;;;5009825;28;20050;-52
2022/10/26 12:35:46;;;;;;;3.20;0.90;;;21.40;57.00;;;;;;5010464;28;20054;-55
2022/10/26 12:38:57;;;;;;;2.97;1.30;;;21.50;56.90;;;;;;5008596;28;20057;-55
2022/10/26 12:41:25;;;;;;;3.63;1.20;;;21.60;56.30;;;;;;5009211;28;20068;-46
2022/10/26 12:43:57;;;;;;;1.85;0.95;;;21.70;56.30;;;;;;5009580;28;20046;-54
2022/10/26 12:46:44;;;;;;;10.85;1.50;;;21.70;56.00;;;;;;5006570;28;20053;-55
2022/10/26 12:49:56;;;;;;;9.02;1.30;;;21.80;56.00;;;;;;5007956;28;20053;-54
2022/10/26 12:52:34;;;;;;;6.43;1.30;;;21.90;55.90;;;;;;5004953;28;20045;-55
2022/10/26 12:55:44;;;;;;;6.72;1.25;;;21.90;55.90;;;;;;5007114;28;20050;-50
2022/10/26 12:58:43;;;;;;;3.65;1.50;;;22.00;55.50;;;;;;5007988;28;20517;-52
2022/10/26 13:01:44;;;;;;;4.63;1.23;;;22.00;55.50;;;;;;5005313;28;20058;-54
2022/10/26 13:04:41;;;;;;;3.17;1.17;;;22.10;55.50;;;;;;5003971;28;20054;-51
2022/10/26 13:07:18;;;;;;;4.00;1.35;;;22.10;55.50;;;;;;4983292;28;20058;-50
2022/10/26 13:10:01;;;;;;;2.65;1.40;;;22.10;55.30;;;;;;4986992;28;20406;-54
2022/10/26 13:12:38;;;;;;;5.55;1.25;;;22.10;55.10;;;;;;4987250;28;20422;-56